الصفحة الرئيسية
METAR-TAF:

METAR-TAF

مطار :

أكاديمية سلاح الجو الأمريكي

كولورادو سبرينغس, كولورادو, الولايات المتحدة

دائرة عرض: 38-58N, خط طول: 104-49W, ارتفاع: 2003 متر

مراقبة الطقس الحالي

تاريخ ووقت الإصدار 49 دقيقة قبل الساعة 13:58UTC
ريح 10 عقدة من الشمال
درجة الحرارة -9°درجة مئوية
الرطوبة 67%
ضغط 1026 hPa
الرؤية: 16.1 كم
سماء صافية

METAR: KAFF 141358Z AUTO 36010KT 10SM CLR M09/M14 A3029 RMK AO2 SLP329 T10881142

زمن: 07:47 (14:47 UTC)

توقعات

تاريخ ووقت الإصدار 2ساعات و 46 دقيقة قبل الساعة 12:01UTC
التوقعات صالحة من14 الساعة 12 UTC إلى 15 الساعة 18 UTC
ريح 6 عقدةمن اتجاهات متغيرة
الرؤية 10 كم أو أكثر
سماء صافية
أصبح
من 14 الساعة 16 UTC إلى 14 الساعة 17 UTC
ريح 6 عقدة من الجنوب الشرقي
الرؤية 10 كم أو أكثر
غيوم قليلة على ارتفاع 20000 قدم
أصبح
من 15 الساعة 14 UTC إلى 15 الساعة 15 UTC
ريح 12 عقدة من الشمال/الشمال الغربي
الرؤية 10 كم أو أكثر
غيوم مفككة على ارتفاع 19000 قدم

TAF: KAFF 141201Z 1412/1518 VRB06KT 9999 SKC QNH3030INS BECMG 1416/1417 13006KT 9999 FEW200 QNH3031INS BECMG 1514/1515 33012KT 9999 BKN190 QNH3013INS TX05/1421Z TNM06/1412Z

أرصاد الطقس والتوقعات من أكثر من 4000 مطار (تقارير الطقس للمطار METAR والتنبؤ بالطقس بالمطارTAF).

المحطات المتاحة هي النقط الصفراء والحمراء على الخريطة.

حرك المؤشر فوق النقطة لمعرفة اسم المحطة.

ثم انقر لمعرفة أرصاد وتوقعات الطقس.

لتغيير الخارطة: اضغط على الأزرار الخضراء مع رمز الصليب الأسود للتكبير. على الزر الأخضر مع شرطة للتصغير، أو على الأسهم الخضراء للخرائط المجاورة.


METAR-TAF: